FW6587 Weather Reports


Display with metric or nautical units.
time (UTC)temp
F
wind
direction
speed
MPH
gust
MPH
rain 1hr
in
rain 24hr
in
rain mn
in
humidity
%
barometer
mb
20220930010112 68 0 0.0 2.0 0.00 0.02 0.02 41 1029.0
20220930005548 69 0 0.0 2.0 0.00 0.02 0.02 41 1029.0
20220930005059 69 0 0.0 2.0 0.00 0.02 0.02 39 1029.1
20220930004555 69 352 0.0 4.0 0.00 0.02 0.02 38 1029.1
20220930004045 70 0 0.0 4.0 0.00 0.02 0.02 38 1029.1
20220930003545 70 352 1.0 4.0 0.00 0.02 0.02 38 1029.0
20220930003102 70 0 0.0 3.0 0.00 0.02 0.02 38 1029.1
20220930002548 71 5 0.0 5.0 0.00 0.02 0.02 38 1028.8
20220930002046 71 304 1.0 5.0 0.00 0.02 0.02 38 1028.8
20220930001554 72 328 0.0 7.0 0.00 0.02 0.02 39 1028.8
20220930001047 73 282 1.0 7.0 0.00 0.02 0.02 36 1028.8
20220930000547 74 13 2.0 7.0 0.00 0.02 0.02 35 1028.9
20220930000058 74 0 1.0 4.0 0.00 0.02 0.02 33 1028.9
20220929235544 75 315 1.0 3.0 0.00 0.02 0.02 32 1029.0
20220929235050 75 175 0.0 3.0 0.00 0.02 0.02 32 1028.9
20220929234553 75 0 0.0 3.0 0.00 0.02 0.02 30 1028.8
20220929234044 74 0 0.0 1.0 0.00 0.02 0.02 31 1028.9
20220929233545 74 0 0.0 1.0 0.00 0.02 0.02 32 1029.1
20220929233052 74 0 0.0 1.0 0.00 0.02 0.02 32 1028.9
20220929232546 74 0 0.0 4.0 0.00 0.02 0.02 31 1028.8
20220929232044 75 0 0.0 4.0 0.00 0.02 0.02 31 1028.9
20220929231559 75 284 0.0 3.0 0.00 0.02 0.02 30 1028.8
20220929231049 76 215 0.0 7.0 0.00 0.02 0.02 29 1028.8
20220929230549 76 0 1.0 7.0 0.00 0.02 0.02 28 1028.8
20220929230053 76 301 1.0 10.0 0.00 0.02 0.02 26 1028.8
20220929225545 76 0 1.0 12.0 0.00 0.02 0.02 28 1028.8
20220929225050 76 36 4.0 12.0 0.00 0.02 0.02 27 1028.8
20220929224549 76 123 0.0 7.0 0.00 0.02 0.02 30 1029.0
20220929224047 77 0 2.0 7.0 0.00 0.02 0.02 27 1029.1
20220929223552 77 191 0.0 2.0 0.00 0.02 0.02 28 1029.2
20220929223053 78 0 0.0 2.0 0.00 0.02 0.02 29 1029.1
20220929222544 78 0 0.0 2.0 0.00 0.02 0.02 27 1029.0
20220929222046 79 0 0.0 7.0 0.00 0.02 0.02 27 1028.9
20220929221615 80 0 1.0 7.0 0.00 0.02 0.02 27 1028.8
20220929221047 80 138 1.0 7.0 0.00 0.02 0.02 25 1028.9
20220929220544 80 126 0.0 3.0 0.00 0.02 0.02 29 1028.9
20220929220111 80 152 1.0 2.0 0.00 0.02 0.02 28 1029.1
20220929215545 80 148 0.0 3.0 0.00 0.02 0.02 28 1029.0
20220929215046 80 123 0.0 3.0 0.00 0.02 0.02 26 1029.0
20220929214602 80 138 1.0 3.0 0.00 0.02 0.02 27 1029.2
20220929214045 80 142 0.0 6.0 0.00 0.02 0.02 26 1029.3
20220929213549 81 0 1.0 6.0 0.00 0.02 0.02 27 1029.1
20220929213105 80 113 2.0 8.0 0.00 0.02 0.02 27 1029.2
20220929212547 80 98 1.0 8.0 0.00 0.02 0.02 28 1029.3
20220929212043 79 138 1.0 8.0 0.00 0.02 0.02 29 1029.3
20220929211548 78 124 0.0 3.0 0.00 0.02 0.02 30 1029.3
20220929211046 77 106 0.0 3.0 0.00 0.02 0.02 31 1029.5
20220929210548 75 93 0.0 3.0 0.00 0.02 0.02 33 1029.6
20220929210056 75 0 0.0 4.0 0.00 0.02 0.02 32 1029.5
20220929205544 75 89 1.0 6.0 0.01 0.02 0.02 36 1029.6
20220929205043 76 83 1.0 10.0 0.01 0.02 0.02 35 1029.7
20220929204557 77 130 2.0 10.0 0.01 0.02 0.02 32 1029.8
20220929204043 76 360 2.0 8.0 0.01 0.02 0.02 35 1029.9
20220929203547 75 101 1.0 6.0 0.01 0.02 0.02 37 1029.9
20220929203057 73 117 1.0 4.0 0.01 0.02 0.02 36 1029.9
20220929202543 74 121 1.0 4.0 0.01 0.02 0.02 39 1029.9
20220929202048 74 74 1.0 3.0 0.01 0.02 0.02 42 1030.1
20220929201604 72 98 1.0 3.0 0.01 0.02 0.02 45 1030.3
20220929201048 69 123 0.0 2.0 0.01 0.02 0.02 49 1030.5
20220929200544 68 146 0.0 3.0 0.01 0.02 0.02 57 1030.5
20220929200053 69 132 0.0 3.0 0.01 0.02 0.02 54 1030.7
20220929195552 72 162 0.0 3.0 0.00 0.01 0.01 43 1030.8
20220929195044 73 0 0.0 3.0 0.00 0.01 0.01 35 1030.8
20220929194549 74 118 0.0 2.0 0.00 0.01 0.01 33 1030.8
20220929194049 74 118 0.0 3.0 0.00 0.01 0.01 31 1030.9
20220929193543 75 119 1.0 11.0 0.00 0.01 0.01 32 1030.8
20220929193100 74 132 1.0 13.0 0.00 0.01 0.01 31 1030.9
20220929192543 74 80 1.0 13.0 0.00 0.01 0.01 31 1030.8
20220929192045 75 152 5.0 13.0 0.00 0.01 0.01 30 1030.8
20220929191552 76 165 3.0 12.0 0.00 0.01 0.01 29 1030.8
20220929191044 76 78 0.0 13.0 0.01 0.01 0.01 34 1030.8
20220929190544 76 0 4.0 13.0 0.01 0.01 0.01 31 1031.0
20220929190056 75 5 0.0 4.0 0.01 0.01 0.01 34 1031.0
20220929185549 75 0 0.0 4.0 0.01 0.01 0.01 39 1031.0
20220929185050 75 0 0.0 4.0 0.01 0.01 0.01 38 1031.0
20220929184600 75 90 0.0 4.0 0.01 0.01 0.01 35 1031.1
20220929184048 74 83 0.0 4.0 0.01 0.01 0.01 43 1031.2
20220929183545 75 94 1.0 4.0 0.01 0.01 0.01 42 1031.2
20220929183049 75 86 0.0 3.0 0.01 0.01 0.01 40 1031.3
20220929182545 75 93 1.0 3.0 0.01 0.01 0.01 45 1031.4
20220929182045 74 0 0.0 4.0 0.01 0.01 0.01 49 1031.4
20220929181559 73 87 1.0 4.0 0.01 0.01 0.01 49 1031.5
20220929181043 75 0 1.0 4.0 0.00 0.00 0.00 45 1031.7
20220929180544 77 72 0.0 4.0 0.00 0.00 0.00 31 1031.7
20220929180051 77 86 0.0 4.0 0.00 0.00 0.00 30 1031.7
20220929175549 77 117 0.0 8.0 0.00 0.00 0.00 30 1031.9
20220929175044 78 138 1.0 8.0 0.00 0.00 0.00 29 1031.9
20220929174552 79 0 1.0 6.0 0.00 0.00 0.00 29 1031.9
20220929174045 80 84 2.0 6.0 0.00 0.00 0.00 30 1031.9
20220929173543 80 103 0.0 5.0 0.00 0.00 0.00 30 1031.9
20220929173123 80 107 1.0 6.0 0.00 0.00 0.00 28 1032.0
20220929172547 79 115 0.0 6.0 0.00 0.00 0.00 32 1032.2
20220929172046 79 78 1.0 6.0 0.00 0.00 0.00 32 1032.2
20220929171555 79 142 2.0 8.0 0.00 0.00 0.00 32 1032.3
20220929171044 79 165 1.0 8.0 0.00 0.00 0.00 32 1032.2
20220929170548 78 67 1.0 7.0 0.00 0.00 0.00 32 1032.4
20220929170049 78 127 2.0 7.0 0.00 0.00 0.00 31 1032.4
20220929165545 77 94 1.0 7.0 0.00 0.00 0.00 32 1032.4
20220929165045 78 114 1.0 4.0 0.00 0.00 0.00 33 1032.6
20220929164546 78 108 1.0 4.0 0.00 0.00 0.00 33 1032.7
20220929164047 78 69 1.0 5.0 0.00 0.00 0.00 30 1032.6
20220929163544 77 146 2.0 7.0 0.00 0.00 0.00 30 1032.7
20220929163053 77 0 1.0 7.0 0.00 0.00 0.00 34 1032.6
20220929162548 77 115 1.0 6.0 0.00 0.00 0.00 32 1032.8
20220929162044 77 94 1.0 6.0 0.00 0.00 0.00 34 1032.9
20220929161551 76 98 1.0 6.0 0.00 0.00 0.00 38 1032.8
20220929161048 75 130 2.0 6.0 0.00 0.00 0.00 36 1032.8
20220929160544 73 143 0.0 4.0 0.00 0.00 0.00 41 1032.8
20220929160052 73 179 1.0 4.0 0.00 0.00 0.00 43 1032.9
20220929155544 72 89 1.0 4.0 0.00 0.00 0.00 44 1033.0
20220929155050 70 101 1.0 4.0 0.00 0.00 0.00 47 1033.0
20220929154552 68 80 0.0 4.0 0.00 0.00 0.00 50 1032.9
20220929154045 68 0 0.0 2.0 0.00 0.00 0.00 53 1033.1
20220929153544 68 0 0.0 1.0 0.00 0.00 0.00 53 1033.1
20220929153137 68 0 0.0 2.0 0.00 0.00 0.00 52 1033.0
20220929152547 68 0 0.0 2.0 0.00 0.00 0.00 51 1033.0
20220929152049 69 0 0.0 1.0 0.00 0.00 0.00 51 1033.0
20220929151553 69 0 0.0 1.0 0.00 0.00 0.00 47 1033.0
20220929151045 70 0 0.0 3.0 0.00 0.00 0.00 45 1033.0
20220929150557 69 0 0.0 3.0 0.00 0.00 0.00 43 1033.2
20220929150106 67 350 0.0 2.0 0.00 0.00 0.00 48 1033.1
20220929145551 66 350 1.0 2.0 0.00 0.00 0.00 51 1033.0
20220929145050 64 333 0.0 2.0 0.00 0.00 0.00 59 1033.0
20220929144557 62 360 0.0 1.0 0.00 0.00 0.00 62 1033.1
20220929144047 62 0 0.0 2.0 0.00 0.00 0.00 61 1033.0
20220929143548 62 0 0.0 2.0 0.00 0.00 0.00 59 1033.2
20220929143100 62 0 0.0 2.0 0.00 0.00 0.00 60 1033.1
20220929142546 62 0 0.0 1.0 0.00 0.00 0.00 59 1033.1
20220929142049 62 0 0.0 1.0 0.00 0.00 0.00 55 1033.1
20220929141611 61 0 0.0 1.0 0.00 0.00 0.00 55 1033.2
20220929141050 61 360 0.0 1.0 0.00 0.00 0.00 56 1033.2
20220929140548 60 0 0.0 1.0 0.00 0.00 0.00 59 1033.2
20220929140056 60 360 0.0 1.0 0.00 0.00 0.00 57 1033.0
20220929135548 60 0 0.0 1.0 0.00 0.00 0.00 55 1033.1
20220929135047 59 360 0.0 1.0 0.00 0.00 0.00 57 1033.0
20220929134552 59 360 0.0 1.0 0.00 0.00 0.00 57 1033.0
20220929134047 58 0 0.0 2.0 0.00 0.00 0.00 56 1033.1
20220929133549 58 0 0.0 2.0 0.00 0.00 0.00 57 1033.0
20220929133056 58 0 0.0 2.0 0.00 0.00 0.00 61 1032.9
20220929132549 59 0 0.0 2.0 0.00 0.00 0.00 59 1032.9
20220929132100 59 360 0.0 1.0 0.00 0.00 0.00 50 1032.6
20220929131609 59 0 0.0 1.0 0.00 0.00 0.00 53 1032.8
20220929131047 58 0 0.0 1.0 0.00 0.00 0.00 53 1032.7
20220929130548 58 0 0.0 1.0 0.00 0.00 0.00 53 1032.8
20220929130058 58 0 0.0 1.0 0.00 0.00 0.00 52 1032.8
20220929125547 57 0 0.0 1.0 0.00 0.00 0.00 55 1032.7
20220929125047 57 0 0.0 1.0 0.00 0.00 0.00 55 1032.9
20220929124600 57 0 0.0 1.0 0.00 0.00 0.00 54 1032.9
20220929124047 57 360 0.0 1.0 0.00 0.00 0.00 53 1032.9
20220929123547 56 0 0.0 1.0 0.00 0.00 0.00 57 1032.8
20220929123055 55 0 0.0 1.0 0.00 0.00 0.00 60 1032.9
20220929122543 56 0 0.0 1.0 0.00 0.00 0.00 60 1032.8
20220929122043 56 0 0.0 1.0 0.00 0.00 0.00 59 1032.8
20220929121549 57 0 0.0 1.0 0.00 0.00 0.00 58 1032.8
20220929121046 57 0 0.0 2.0 0.00 0.00 0.00 56 1033.0
20220929120546 57 360 0.0 2.0 0.00 0.00 0.00 57 1032.8
20220929120110 57 360 0.0 1.0 0.00 0.00 0.00 55 1032.8
20220929115559 57 360 0.0 2.0 0.00 0.00 0.00 55 1032.8
20220929115048 57 0 0.0 2.0 0.00 0.00 0.00 59 1032.8
20220929114602 57 360 0.0 2.0 0.00 0.00 0.00 59 1033.0
20220929114045 57 0 0.0 2.0 0.00 0.00 0.00 59 1033.0
20220929113545 57 0 0.0 1.0 0.00 0.00 0.00 58 1032.9
20220929113049 58 360 0.0 1.0 0.00 0.00 0.00 56 1032.9
20220929112545 58 0 0.0 1.0 0.00 0.00 0.00 58 1033.0
20220929112045 58 0 0.0 1.0 0.00 0.00 0.00 53 1032.8
20220929111555 58 360 0.0 1.0 0.00 0.00 0.00 57 1033.0
20220929111045 58 0 0.0 1.0 0.00 0.00 0.00 56 1033.0
20220929110544 59 360 0.0 4.0 0.00 0.00 0.00 54 1032.9
20220929110051 58 0 0.0 4.0 0.00 0.00 0.00 52 1032.8
20220929105543 58 360 1.0 4.0 0.00 0.00 0.00 53 1032.8
20220929105043 57 0 0.0 2.0 0.00 0.00 0.00 55 1032.9
20220929104551 58 360 0.0 1.0 0.00 0.00 0.00 54 1033.0
20220929104043 59 0 0.0 1.0 0.00 0.00 0.00 49 1032.8
20220929103543 60 0 0.0 1.0 0.00 0.00 0.00 48 1032.9
20220929103052 60 0 0.0 1.0 0.00 0.00 0.00 44 1032.9
20220929102544 61 0 0.0 1.0 0.00 0.00 0.00 44 1032.9
20220929102043 61 0 0.0 1.0 0.00 0.00 0.00 42 1033.0
20220929101552 61 0 0.0 1.0 0.00 0.00 0.00 43 1032.9
20220929101042 61 360 0.0 1.0 0.00 0.00 0.00 43 1033.0
20220929100543 60 0 0.0 1.0 0.00 0.00 0.00 44 1032.9
20220929100052 60 360 0.0 1.0 0.00 0.00 0.00 45 1032.9
20220929095542 60 0 0.0 1.0 0.00 0.00 0.00 44 1032.8
20220929095042 59 0 0.0 1.0 0.00 0.00 0.00 45 1032.9
20220929094558 59 0 0.0 0.0 0.00 0.00 0.00 45 1032.8
20220929094042 58 0 0.0 0.0 0.00 0.00 0.00 47 1032.7
20220929093549 58 0 0.0 1.0 0.00 0.00 0.00 48 1032.7
20220929093059 58 0 0.0 1.0 0.00 0.00 0.00 47 1032.7
20220929092547 57 0 0.0 0.0 0.00 0.00 0.00 50 1032.8
20220929092042 57 0 0.0 0.0 0.00 0.00 0.00 50 1032.7
20220929091554 57 0 0.0 2.0 0.00 0.00 0.00 50 1032.8
20220929091046 57 0 0.0 2.0 0.00 0.00 0.00 52 1032.8
20220929090547 57 360 0.0 3.0 0.00 0.00 0.00 53 1033.1
20220929090057 58 0 0.0 3.0 0.00 0.00 0.00 54 1033.0
20220929085544 58 360 0.0 2.0 0.00 0.00 0.00 53 1033.2
20220929085043 58 0 0.0 2.0 0.00 0.00 0.00 54 1033.1
20220929084550 58 0 0.0 1.0 0.00 0.00 0.00 55 1033.0
20220929084043 58 0 0.0 1.0 0.00 0.00 0.00 55 1033.2
20220929083546 59 0 0.0 1.0 0.00 0.00 0.00 51 1033.2
20220929083052 59 0 0.0 1.0 0.00 0.00 0.00 49 1033.2
20220929082543 59 0 0.0 1.0 0.00 0.00 0.00 44 1033.3
20220929082043 60 0 0.0 1.0 0.00 0.00 0.00 43 1033.2
20220929081546 59 0 0.0 1.0 0.00 0.00 0.00 44 1033.3
20220929081047 59 0 0.0 1.0 0.00 0.00 0.00 44 1033.4
20220929080544 59 0 0.0 1.0 0.00 0.00 0.00 45 1033.4
20220929080114 58 0 0.0 2.0 0.00 0.00 0.00 47 1033.3
20220929075542 58 360 1.0 2.0 0.00 0.00 0.00 47 1033.4
20220929075043 57 360 0.0 2.0 0.00 0.00 0.00 50 1033.3
20220929074552 58 360 0.0 2.0 0.00 0.00 0.00 50 1033.3
20220929074043 57 360 0.0 2.0 0.00 0.00 0.00 49 1033.4
20220929073545 57 360 0.0 2.0 0.00 0.00 0.00 50 1033.4
20220929073049 56 0 0.0 2.0 0.00 0.00 0.00 52 1033.4
20220929072543 56 0 0.0 2.0 0.00 0.00 0.00 53 1033.4
20220929072043 56 360 0.0 2.0 0.00 0.00 0.00 53 1033.4
20220929071553 56 0 0.0 2.0 0.00 0.00 0.00 53 1033.4
20220929071042 57 360 0.0 2.0 0.00 0.00 0.00 51 1033.5
20220929070543 57 360 0.0 2.0 0.00 0.00 0.00 51 1033.5
20220929070052 58 0 0.0 2.0 0.00 0.00 0.00 51 1033.4
20220929065544 60 360 0.0 1.0 0.00 0.00 0.00 44 1033.4
20220929065045 61 0 0.0 1.0 0.00 0.00 0.00 39 1033.4
20220929064553 61 0 0.0 1.0 0.00 0.00 0.00 39 1033.4
20220929064041 61 0 0.0 1.0 0.00 0.00 0.00 40 1033.4
20220929063550 60 0 0.0 1.0 0.00 0.00 0.00 41 1033.4
20220929063052 59 0 0.0 1.0 0.00 0.00 0.00 43 1033.5
20220929062547 58 0 0.0 1.0 0.00 0.00 0.00 46 1033.5
20220929062043 57 0 0.0 2.0 0.00 0.00 0.00 49 1033.5
20220929061553 57 0 0.0 2.0 0.00 0.00 0.00 52 1033.7
20220929061045 57 360 0.0 2.0 0.00 0.00 0.00 54 1033.6
20220929060547 58 0 0.0 4.0 0.00 0.00 0.00 57 1033.6
20220929060054 58 360 0.0 4.0 0.00 0.00 0.00 56 1033.7
20220929055547 57 360 0.0 2.0 0.00 0.00 0.00 52 1033.6
20220929055044 58 0 0.0 2.0 0.00 0.00 0.00 53 1033.6
20220929054638 58 0 0.0 3.0 0.00 0.00 0.00 52 1033.7
20220929054044 58 360 0.0 3.0 0.00 0.00 0.00 53 1033.7
20220929053545 58 360 0.0 2.0 0.00 0.00 0.00 54 1033.8
20220929053112 59 0 0.0 2.0 0.00 0.00 0.00 55 1033.8
20220929052547 58 360 0.0 1.0 0.00 0.00 0.00 48 1033.9
20220929052047 58 0 0.0 1.0 0.00 0.00 0.00 50 1033.9
20220929051557 59 0 0.0 2.0 0.00 0.00 0.00 48 1033.9
20220929051045 60 0 0.0 2.0 0.00 0.00 0.00 46 1033.8
20220929050545 60 360 0.0 3.0 0.00 0.00 0.00 45 1033.8
20220929050110 60 0 0.0 3.0 0.00 0.00 0.00 46 1033.9
20220929045546 60 360 0.0 1.0 0.00 0.00 0.00 45 1033.7
20220929045044 61 360 0.0 1.0 0.00 0.00 0.00 42 1033.8
20220929044554 61 0 0.0 2.0 0.00 0.00 0.00 41 1033.7
20220929044050 62 0 0.0 2.0 0.00 0.00 0.00 39 1033.5
20220929043550 63 360 0.0 1.0 0.00 0.00 0.00 38 1033.5
20220929043052 63 0 0.0 2.0 0.00 0.00 0.00 39 1033.5
20220929042545 62 0 0.0 2.0 0.00 0.00 0.00 42 1033.6
20220929042058 64 0 0.0 2.0 0.00 0.00 0.00 38 1033.5
20220929041558 64 0 0.0 1.0 0.00 0.00 0.00 36 1033.4
20220929041045 64 0 0.0 2.0 0.00 0.00 0.00 36 1033.4
20220929040546 63 0 0.0 2.0 0.00 0.00 0.00 38 1033.4
20220929040101 61 0 0.0 1.0 0.00 0.00 0.00 42 1033.4
20220929035547 59 0 0.0 1.0 0.00 0.00 0.00 48 1033.5
20220929035047 59 0 0.0 1.0 0.00 0.00 0.00 49 1033.5
20220929034603 60 0 0.0 1.0 0.00 0.00 0.00 47 1033.5
20220929034047 60 0 0.0 0.0 0.00 0.00 0.00 46 1033.5
20220929033544 61 0 0.0 2.0 0.00 0.00 0.00 46 1033.5
20220929033106 61 0 0.0 3.0 0.00 0.00 0.00 46 1033.5
20220929032550 61 360 1.0 3.0 0.00 0.00 0.00 45 1033.5
20220929032048 61 0 0.0 2.0 0.00 0.00 0.00 44 1033.4
20220929031606 61 0 0.0 1.0 0.00 0.00 0.00 46 1033.4
20220929031050 61 0 0.0 1.0 0.00 0.00 0.00 46 1033.5
20220929030544 61 0 0.0 2.0 0.00 0.00 0.00 46 1033.5
20220929030056 62 0 0.0 2.0 0.00 0.00 0.00 46 1033.4
20220929025544 62 360 0.0 2.0 0.00 0.00 0.00 45 1033.4
20220929025044 62 0 0.0 1.0 0.00 0.00 0.00 45 1033.4
20220929024556 63 0 0.0 1.0 0.00 0.00 0.00 44 1033.2
20220929024044 64 0 0.0 1.0 0.00 0.00 0.00 41 1033.2
20220929023545 65 0 0.0 1.0 0.00 0.00 0.00 40 1033.2
20220929023055 66 0 0.0 1.0 0.00 0.00 0.00 38 1033.1
20220929022545 66 0 0.0 1.0 0.00 0.00 0.00 38 1033.0
20220929022046 66 0 0.0 1.0 0.00 0.00 0.00 38 1033.0
20220929021551 66 0 0.0 0.0 0.00 0.00 0.00 39 1033.0
20220929021044 66 0 0.0 0.0 0.00 0.00 0.00 39 1033.0
20220929020543 67 0 0.0 1.0 0.00 0.00 0.00 38 1033.0
20220929020112 67 0 0.0 1.0 0.00 0.00 0.00 37 1033.1
20220929015543 67 0 0.0 1.0 0.00 0.00 0.00 37 1033.0
20220929015043 67 0 0.0 1.0 0.00 0.00 0.00 37 1033.0
20220929014605 67 0 0.0 2.0 0.00 0.00 0.00 37 1033.2
20220929014048 67 0 0.0 2.0 0.00 0.00 0.00 37 1033.2
20220929013543 66 0 0.0 4.0 0.00 0.00 0.00 39 1033.2
20220929013136 67 0 0.0 4.0 0.00 0.00 0.00 42 1033.1
20220929012545 67 360 0.0 1.0 0.00 0.00 0.00 40 1033.1
20220929012044 67 0 0.0 2.0 0.00 0.00 0.00 43 1032.9
20220929011554 67 0 0.0 2.0 0.00 0.00 0.00 44 1032.9
20220929011044 68 360 0.0 2.0 0.00 0.00 0.00 42 1033.0
20220929010544 68 0 0.0 1.0 0.00 0.00 0.00 40 1033.0